Time,TemperatureF,DewpointF,PressureIn,WindDirection,WindDirectionDegrees,WindSpeedMPH,WindSpeedGustMPH,Humidity,HourlyPrecipIn,Conditions,Clouds,dailyrainin,SoftwareType,DateUTC
2013-06-02 13:19:00,88.5,54.9,29.50,WSW,239,4.0,4.0,32,0.00,,,0.00,VWS V14.01,2013-06-02 17:19:00,
2013-06-02 13:24:00,88.9,54.4,29.50,SW,229,0.0,2.7,31,0.00,,,0.00,VWS V14.01,2013-06-02 17:24:00,
2013-06-02 13:29:00,89.2,54.7,29.50,SW,220,3.1,3.1,31,0.00,,,0.00,VWS V14.01,2013-06-02 17:29:00,
2013-06-02 13:34:00,89.1,54.5,29.50,WSW,240,3.6,7.6,31,0.00,,,0.00,VWS V14.01,2013-06-02 17:34:00,
2013-06-02 13:39:00,88.9,53.5,29.50,SW,232,5.8,9.6,30,0.00,,,0.00,VWS V14.01,2013-06-02 17:39:00,
2013-06-02 13:44:00,88.5,53.2,29.50,West,273,3.6,6.3,30,0.00,,,0.00,VWS V14.01,2013-06-02 17:44:00,
2013-06-02 13:49:00,88.2,52.8,29.50,NW,321,3.1,8.3,30,0.00,,,0.00,VWS V14.01,2013-06-02 17:49:00,
2013-06-02 13:54:00,88.2,53.7,29.50,SSW,206,11.4,11.4,31,0.00,,,0.00,VWS V14.01,2013-06-02 17:54:00,
2013-06-02 13:59:00,88.2,53.7,29.47,WSW,252,2.7,3.1,31,0.00,,,0.00,VWS V14.01,2013-06-02 17:59:00,
2013-06-02 14:04:00,88.5,54.1,29.47,West,267,0.0,4.0,31,0.00,,,0.00,VWS V14.01,2013-06-02 18:04:00,
2013-06-02 14:09:00,88.7,55.1,29.47,West,276,3.6,6.3,32,0.00,,,0.00,VWS V14.01,2013-06-02 18:09:00,
2013-06-02 14:14:00,88.7,54.2,29.47,West,265,8.1,8.1,31,0.00,,,0.00,VWS V14.01,2013-06-02 18:14:00,
2013-06-02 14:19:00,88.3,53.9,29.47,South,174,3.1,4.9,31,0.00,,,0.00,VWS V14.01,2013-06-02 18:19:00,
2013-06-02 14:24:00,88.2,53.7,29.47,WSW,251,5.4,8.3,31,0.00,,,0.00,VWS V14.01,2013-06-02 18:24:00,
2013-06-02 14:29:00,88.2,54.6,29.47,NW,304,3.6,5.8,32,0.00,,,0.00,VWS V14.01,2013-06-02 18:29:00,
2013-06-02 14:34:00,88.0,53.6,29.47,WNW,290,3.1,8.7,31,0.00,,,0.00,VWS V14.01,2013-06-02 18:34:00,
2013-06-02 14:39:00,87.8,54.3,29.47,West,281,8.1,8.1,32,0.00,,,0.00,VWS V14.01,2013-06-02 18:39:00,
2013-06-02 14:44:00,87.6,55.0,29.47,WSW,244,4.0,7.6,33,0.00,,,0.00,VWS V14.01,2013-06-02 18:44:00,
2013-06-02 14:49:00,87.4,54.0,29.47,West,265,2.7,3.6,32,0.00,,,0.00,VWS V14.01,2013-06-02 18:49:00,
2013-06-02 14:54:00,87.4,54.8,29.47,West,273,2.7,5.4,33,0.00,,,0.00,VWS V14.01,2013-06-02 18:54:00,
2013-06-02 14:59:00,87.3,53.8,29.47,West,263,6.3,6.3,32,0.00,,,0.00,VWS V14.01,2013-06-02 18:59:00,
2013-06-02 15:04:00,87.1,54.5,29.47,WNW,290,3.1,9.2,33,0.00,,,0.00,VWS V14.01,2013-06-02 19:04:00,
2013-06-02 15:09:00,86.9,54.4,29.47,WNW,302,4.0,5.4,33,0.00,,,0.00,VWS V14.01,2013-06-02 19:09:00,
2013-06-02 15:14:00,86.9,54.4,29.44,WSW,254,4.0,4.0,33,0.00,,,0.00,VWS V14.01,2013-06-02 19:14:00,
2013-06-02 15:19:00,87.1,55.3,29.44,West,268,3.6,5.8,34,0.00,,,0.00,VWS V14.01,2013-06-02 19:19:00,
2013-06-02 15:24:00,86.9,54.4,29.44,SSW,207,4.0,7.2,33,0.00,,,0.00,VWS V14.01,2013-06-02 19:24:00,
2013-06-02 15:29:00,86.9,55.2,29.44,SSW,208,4.0,4.0,34,0.00,,,0.00,VWS V14.01,2013-06-02 19:29:00,
2013-06-02 15:34:00,86.7,55.0,29.44,SW,220,4.0,7.6,34,0.00,,,0.00,VWS V14.01,2013-06-02 19:34:00,
2013-06-02 15:39:00,86.7,55.8,29.44,SW,236,2.2,4.9,35,0.00,,,0.00,VWS V14.01,2013-06-02 19:39:00,
2013-06-02 15:43:00,86.9,56.8,29.44,West,267,3.1,4.9,36,0.00,,,0.00,VWS V14.01,2013-06-02 19:43:00,
2013-06-02 15:48:00,86.9,55.2,29.44,SW,230,5.4,5.4,34,0.00,,,0.00,VWS V14.01,2013-06-02 19:48:00,
2013-06-02 15:53:00,86.4,55.5,29.44,WSW,241,3.6,8.1,35,0.00,,,0.00,VWS V14.01,2013-06-02 19:53:00,
2013-06-02 15:58:00,86.2,56.1,29.44,NNW,328,4.0,8.1,36,0.00,,,0.00,VWS V14.01,2013-06-02 19:58:00,
2013-06-02 16:03:00,86.0,55.2,29.44,WSW,243,5.4,10.5,35,0.00,,,0.00,VWS V14.01,2013-06-02 20:03:00,
2013-06-02 16:08:00,85.8,57.3,29.44,WSW,244,6.3,6.3,38,0.00,,,0.00,VWS V14.01,2013-06-02 20:08:00,
2013-06-02 16:13:00,85.6,57.1,29.44,West,276,7.6,7.6,38,0.00,,,0.00,VWS V14.01,2013-06-02 20:13:00,
2013-06-02 16:18:00,85.3,56.8,29.44,West,275,5.8,8.3,38,0.00,,,0.00,VWS V14.01,2013-06-02 20:18:00,
2013-06-02 16:23:00,85.1,57.4,29.44,WSW,247,8.1,8.1,39,0.00,,,0.00,VWS V14.01,2013-06-02 20:23:00,
2013-06-02 16:28:00,84.9,57.2,29.44,North,0,3.6,4.0,39,0.00,,,0.00,VWS V14.01,2013-06-02 20:28:00,
2013-06-02 16:33:00,84.7,57.8,29.44,SW,216,4.0,5.4,40,0.00,,,0.00,VWS V14.01,2013-06-02 20:33:00,
2013-06-02 16:38:00,84.7,58.5,29.44,WSW,246,2.2,4.9,41,0.00,,,0.00,VWS V14.01,2013-06-02 20:38:00,
2013-06-02 16:43:00,84.7,59.1,29.44,SW,232,5.4,5.4,42,0.00,,,0.00,VWS V14.01,2013-06-02 20:43:00,
2013-06-02 16:48:00,84.4,58.8,29.44,WNW,293,6.7,6.7,42,0.00,,,0.00,VWS V14.01,2013-06-02 20:48:00,
2013-06-02 16:53:00,84.2,60.0,29.44,SW,235,3.6,3.6,44,0.00,,,0.00,VWS V14.01,2013-06-02 20:53:00,
2013-06-02 16:58:00,84.0,59.8,29.44,West,271,5.4,5.4,44,0.00,,,0.00,VWS V14.01,2013-06-02 20:58:00,
2013-06-02 17:03:00,83.7,60.1,29.44,SSW,210,4.0,6.3,45,0.00,,,0.00,VWS V14.01,2013-06-02 21:03:00,
2013-06-02 17:08:00,83.5,59.9,29.44,WSW,245,4.0,4.9,45,0.00,,,0.00,VWS V14.01,2013-06-02 21:08:00,
2013-06-02 17:13:00,83.1,59.6,29.44,WNW,288,5.4,5.8,45,0.00,,,0.00,VWS V14.01,2013-06-02 21:13:00,
2013-06-02 17:18:00,82.8,59.9,29.44,NW,319,5.4,7.6,46,0.00,,,0.00,VWS V14.01,2013-06-02 21:18:00,
2013-06-02 17:23:00,82.2,60.0,29.44,West,272,11.9,11.9,47,0.00,,,0.00,VWS V14.01,2013-06-02 21:23:00,
2013-06-02 17:28:00,82.0,60.4,29.44,WNW,295,0.0,2.7,48,0.00,,,0.00,VWS V14.01,2013-06-02 21:28:00,
2013-06-02 17:33:00,81.7,60.7,29.44,WSW,256,2.2,3.1,49,0.00,,,0.00,VWS V14.01,2013-06-02 21:33:00,
2013-06-02 17:38:00,81.7,61.2,29.44,WSW,241,3.6,5.4,50,0.00,,,0.00,VWS V14.01,2013-06-02 21:38:00,
2013-06-02 17:43:00,81.7,60.7,29.44,SE,138,2.7,3.1,49,0.00,,,0.00,VWS V14.01,2013-06-02 21:43:00,
2013-06-02 17:48:00,81.5,60.5,29.44,SW,215,2.7,5.4,49,0.00,,,0.00,VWS V14.01,2013-06-02 21:48:00,
2013-06-02 17:53:00,81.1,60.8,29.44,West,262,3.1,4.0,50,0.00,,,0.00,VWS V14.01,2013-06-02 21:53:00,
2013-06-02 17:58:00,81.0,61.2,29.44,SW,229,3.6,4.5,51,0.00,,,0.00,VWS V14.01,2013-06-02 21:58:00,
2013-06-02 18:03:00,80.6,61.4,29.44,WSW,237,2.7,5.4,52,0.00,,,0.00,VWS V14.01,2013-06-02 22:03:00,
2013-06-02 18:08:00,80.4,61.2,29.44,WSW,254,4.0,4.0,52,0.00,,,0.00,VWS V14.01,2013-06-02 22:08:00,
2013-06-02 18:13:00,80.1,61.4,29.44,SSW,196,4.9,4.9,53,0.00,,,0.00,VWS V14.01,2013-06-02 22:13:00,
2013-06-02 18:18:00,79.9,61.2,29.44,SW,231,4.0,4.0,53,0.00,,,0.00,VWS V14.01,2013-06-02 22:18:00,
2013-06-02 18:23:00,79.7,61.6,29.44,WSW,253,0.0,0.0,54,0.00,,,0.00,VWS V14.01,2013-06-02 22:23:00,
2013-06-02 18:28:00,79.5,61.4,29.47,WSW,240,4.0,4.9,54,0.00,,,0.00,VWS V14.01,2013-06-02 22:28:00,
2013-06-02 18:33:00,79.3,61.8,29.47,WSW,245,3.1,3.1,55,0.00,,,0.00,VWS V14.01,2013-06-02 22:33:00,
2013-06-02 18:38:00,79.2,61.6,29.47,WSW,250,0.0,3.1,55,0.00,,,0.00,VWS V14.01,2013-06-02 22:38:00,
2013-06-02 18:43:00,79.0,61.5,29.47,WSW,253,2.7,2.7,55,0.00,,,0.00,VWS V14.01,2013-06-02 22:43:00,
2013-06-02 18:48:00,78.8,61.8,29.47,SW,233,3.6,3.6,56,0.00,,,0.00,VWS V14.01,2013-06-02 22:48:00,
2013-06-02 18:53:00,78.6,61.6,29.47,SSW,209,5.8,5.8,56,0.00,,,0.00,VWS V14.01,2013-06-02 22:53:00,
2013-06-02 18:58:00,78.4,61.5,29.47,WNW,293,3.1,7.6,56,0.00,,,0.00,VWS V14.01,2013-06-02 22:58:00,
2013-06-02 19:03:00,78.1,61.6,29.47,WSW,243,7.2,7.2,57,0.00,,,0.00,VWS V14.01,2013-06-02 23:03:00,
2013-06-02 19:08:00,77.7,61.3,29.47,WSW,243,3.6,5.4,57,0.00,,,0.00,VWS V14.01,2013-06-02 23:08:00,
2013-06-02 19:13:00,77.4,61.4,29.47,WSW,249,3.1,3.1,58,0.00,,,0.00,VWS V14.01,2013-06-02 23:13:00,
2013-06-02 19:18:00,77.2,61.8,29.47,WSW,240,3.6,3.6,59,0.00,,,0.00,VWS V14.01,2013-06-02 23:18:00,
2013-06-02 19:23:00,76.8,61.9,29.47,NW,312,4.9,4.9,60,0.00,,,0.00,VWS V14.01,2013-06-02 23:23:00,
2013-06-02 19:28:00,76.6,61.7,29.47,WSW,253,2.7,6.3,60,0.00,,,0.00,VWS V14.01,2013-06-02 23:28:00,
2013-06-02 19:33:00,76.5,61.6,29.47,WSW,250,0.0,8.7,60,0.00,,,0.00,VWS V14.01,2013-06-02 23:33:00,
2013-06-02 19:38:00,76.1,61.2,29.47,WSW,250,6.3,6.3,60,0.00,,,0.00,VWS V14.01,2013-06-02 23:38:00,
2013-06-02 19:43:00,75.9,61.5,29.47,WSW,247,0.0,0.0,61,0.00,,,0.00,VWS V14.01,2013-06-02 23:43:00,
2013-06-02 19:48:00,75.7,61.3,29.47,SSW,211,3.6,5.8,61,0.00,,,0.00,VWS V14.01,2013-06-02 23:48:00,
2013-06-02 19:53:00,75.6,61.2,29.47,WNW,299,5.4,5.4,61,0.00,,,0.00,VWS V14.01,2013-06-02 23:53:00,
2013-06-02 19:58:00,75.2,61.3,29.47,WSW,258,0.0,0.0,62,0.00,,,0.00,VWS V14.01,2013-06-02 23:58:00,
2013-06-02 20:03:00,75.0,61.1,29.47,WNW,283,0.0,0.0,62,0.00,,,0.00,VWS V14.01,2013-06-03 00:03:00,
2013-06-02 20:08:00,74.8,61.4,29.47,West,265,4.0,4.0,63,0.00,,,0.00,VWS V14.01,2013-06-03 00:08:00,
2013-06-02 20:13:00,74.7,61.2,29.50,WSW,254,3.1,3.1,63,0.00,,,0.00,VWS V14.01,2013-06-03 00:13:00,
2013-06-02 20:18:00,74.5,61.1,29.50,WSW,245,3.1,5.4,63,0.00,,,0.00,VWS V14.01,2013-06-03 00:18:00,
2013-06-02 20:23:00,74.5,61.5,29.50,SW,218,3.6,3.6,64,0.00,,,0.00,VWS V14.01,2013-06-03 00:23:00,
2013-06-02 20:28:00,74.3,61.3,29.50,SSW,202,4.9,4.9,64,0.00,,,0.00,VWS V14.01,2013-06-03 00:28:00,
2013-06-02 20:33:00,74.1,61.2,29.50,SW,217,0.0,0.0,64,0.00,,,0.00,VWS V14.01,2013-06-03 00:33:00,
2013-06-02 20:38:00,73.9,61.0,29.50,WSW,249,0.0,0.0,64,0.00,,,0.00,VWS V14.01,2013-06-03 00:38:00,
2013-06-02 20:43:00,73.8,61.3,29.50,SW,233,0.0,3.6,65,0.00,,,0.00,VWS V14.01,2013-06-03 00:43:00,
2013-06-02 20:48:00,73.6,60.7,29.50,WSW,246,2.7,2.7,64,0.00,,,0.00,VWS V14.01,2013-06-03 00:48:00,
2013-06-02 20:53:00,73.6,60.7,29.50,SW,228,2.7,2.7,64,0.00,,,0.00,VWS V14.01,2013-06-03 00:53:00,
2013-06-02 20:58:00,73.4,60.9,29.50,SW,236,3.1,3.1,65,0.00,,,0.00,VWS V14.01,2013-06-03 00:58:00,
2013-06-02 21:03:00,73.2,60.8,29.50,SSW,211,0.0,0.0,65,0.00,,,0.00,VWS V14.01,2013-06-03 01:03:00,
2013-06-02 21:08:00,73.0,61.0,29.50,WSW,246,3.1,5.4,66,0.00,,,0.00,VWS V14.01,2013-06-03 01:08:00,
2013-06-02 21:13:00,72.7,60.7,29.50,WSW,257,2.7,3.1,66,0.00,,,0.00,VWS V14.01,2013-06-03 01:13:00,
2013-06-02 21:18:00,72.7,60.7,29.50,SW,220,5.8,5.8,66,0.00,,,0.00,VWS V14.01,2013-06-03 01:18:00,
2013-06-02 21:23:00,72.5,60.9,29.50,WSW,241,0.0,3.1,67,0.00,,,0.00,VWS V14.01,2013-06-03 01:23:00,
2013-06-02 21:28:00,72.3,60.8,29.50,WSW,246,0.0,0.0,67,0.00,,,0.00,VWS V14.01,2013-06-03 01:28:00,
2013-06-02 21:33:00,72.1,60.6,29.50,WSW,249,0.0,3.1,67,0.00,,,0.00,VWS V14.01,2013-06-03 01:33:00,
2013-06-02 21:38:00,72.1,60.6,29.50,WSW,254,0.0,0.0,67,0.00,,,0.00,VWS V14.01,2013-06-03 01:38:00,
2013-06-02 21:43:00,72.0,60.4,29.50,West,259,0.0,0.0,67,0.00,,,0.00,VWS V14.01,2013-06-03 01:43:00,
2013-06-02 21:48:00,71.8,60.7,29.50,WNW,289,0.0,0.0,68,0.00,,,0.00,VWS V14.01,2013-06-03 01:48:00,
2013-06-02 21:53:00,71.8,60.7,29.50,WSW,238,3.1,3.1,68,0.00,,,0.00,VWS V14.01,2013-06-03 01:53:00,
2013-06-02 21:58:00,71.6,60.5,29.50,SW,225,0.0,0.0,68,0.00,,,0.00,VWS V14.01,2013-06-03 01:58:00,
2013-06-02 22:03:00,71.4,60.3,29.50,WSW,246,0.0,0.0,68,0.00,,,0.00,VWS V14.01,2013-06-03 02:03:00,
2013-06-02 22:08:00,71.4,60.7,29.50,WNW,301,2.2,2.7,69,0.00,,,0.00,VWS V14.01,2013-06-03 02:08:00,
2013-06-02 22:13:00,71.2,60.6,29.50,WSW,237,2.2,4.9,69,0.00,,,0.00,VWS V14.01,2013-06-03 02:13:00,
2013-06-02 22:18:00,71.1,60.4,29.50,West,279,0.0,0.0,69,0.00,,,0.00,VWS V14.01,2013-06-03 02:18:00,
2013-06-02 22:23:00,71.1,60.4,29.50,West,259,3.6,3.6,69,0.00,,,0.00,VWS V14.01,2013-06-03 02:23:00,
2013-06-02 22:28:00,70.9,60.6,29.50,SSW,204,4.0,5.4,70,0.00,,,0.00,VWS V14.01,2013-06-03 02:28:00,
2013-06-02 22:33:00,70.7,60.5,29.50,WSW,244,0.0,0.0,70,0.00,,,0.00,VWS V14.01,2013-06-03 02:33:00,
2013-06-02 22:38:00,70.5,60.3,29.50,SSE,168,0.0,0.0,70,0.00,,,0.00,VWS V14.01,2013-06-03 02:38:00,
2013-06-02 22:43:00,70.5,60.3,29.50,North,8,0.0,0.0,70,0.00,,,0.00,VWS V14.01,2013-06-03 02:43:00,
2013-06-02 22:48:00,70.3,60.1,29.50,WSW,253,2.7,2.7,70,0.00,,,0.00,VWS V14.01,2013-06-03 02:48:00,
2013-06-02 22:53:00,70.3,60.5,29.50,WSW,250,3.6,3.6,71,0.00,,,0.00,VWS V14.01,2013-06-03 02:53:00,
2013-06-02 22:58:00,70.2,60.3,29.50,WSW,248,2.7,2.7,71,0.00,,,0.00,VWS V14.01,2013-06-03 02:58:00,
2013-06-02 23:03:00,70.0,60.2,29.50,SW,230,0.0,0.0,71,0.00,,,0.00,VWS V14.01,2013-06-03 03:03:00,
2013-06-02 23:08:00,70.0,60.2,29.50,SW,236,0.0,0.0,71,0.00,,,0.00,VWS V14.01,2013-06-03 03:08:00,
2013-06-02 23:13:00,69.8,60.4,29.50,SW,216,0.0,0.0,72,0.00,,,0.00,VWS V14.01,2013-06-03 03:13:00,
2013-06-02 23:18:00,69.8,60.4,29.50,SW,221,0.0,0.0,72,0.00,,,0.00,VWS V14.01,2013-06-03 03:18:00,
2013-06-02 23:23:00,69.6,60.6,29.50,WSW,253,0.0,0.0,73,0.00,,,0.00,VWS V14.01,2013-06-03 03:23:00,
2013-06-02 23:28:00,69.4,60.4,29.50,West,260,0.0,0.0,73,0.00,,,0.00,VWS V14.01,2013-06-03 03:28:00,
2013-06-02 23:33:00,69.4,60.4,29.50,ESE,104,0.0,0.0,73,0.00,,,0.00,VWS V14.01,2013-06-03 03:33:00,
2013-06-02 23:38:00,69.4,60.4,29.50,SW,214,0.0,0.0,73,0.00,,,0.00,VWS V14.01,2013-06-03 03:38:00,
2013-06-02 23:43:00,69.3,60.6,29.50,SW,214,0.0,0.0,74,0.00,,,0.00,VWS V14.01,2013-06-03 03:43:00,
2013-06-02 23:48:00,69.3,60.6,29.50,WSW,240,0.0,0.0,74,0.00,,,0.00,VWS V14.01,2013-06-03 03:48:00,
2013-06-02 23:53:00,69.3,61.0,29.50,WSW,247,0.0,0.0,75,0.00,,,0.00,VWS V14.01,2013-06-03 03:53:00,
2013-06-02 23:58:00,69.3,61.0,29.50,WSW,246,0.0,0.0,75,0.00,,,0.00,VWS V14.01,2013-06-03 03:58:00,